OAN110 ENTC-ENSB
Flight info
| Callsign | OAN110 |
|---|---|
| Flight time | 1h 37m |
| Altitude | 28000 |
| Route | LOMVI P600 INPAR DCT LALAD |
| Aircraft | C17/H-SDE1E2FGHIJ5RTUWXY/LB1D1 |
Departure
| Time | 2026-05-07 16:43 |
|---|---|
| Airport | Tromsø Airport (ENTC) |
Arrival
| Time | 2026-05-07 18:21 |
|---|---|
| Airport | Svalbard Airport, Longyear (ENSB) |
| Time | Latitude | Longitude | Altitude | Speed | Heading |
|---|---|---|---|---|---|
| 2026-05-07 16:43 | 69.71413 | 18.78917 | 9753 ft | 260 kts | 28° |
| 2026-05-07 16:43 | 69.73004 | 18.81583 | 10162 ft | 263 kts | 28° |
| 2026-05-07 16:43 | 69.74586 | 18.84248 | 10542 ft | 263 kts | 28° |
| 2026-05-07 16:44 | 69.76178 | 18.86928 | 10932 ft | 267 kts | 28° |
| 2026-05-07 16:44 | 69.77800 | 18.89660 | 11342 ft | 279 kts | 28° |
| 2026-05-07 16:44 | 69.79549 | 18.92608 | 11809 ft | 294 kts | 28° |
| 2026-05-07 16:44 | 69.81318 | 18.95609 | 12211 ft | 296 kts | 27° |
| 2026-05-07 16:45 | 69.83210 | 18.97745 | 12602 ft | 291 kts | 5° |
| 2026-05-07 16:45 | 69.85229 | 18.98040 | 13054 ft | 294 kts | 359° |
| 2026-05-07 16:45 | 69.87289 | 18.98209 | 13501 ft | 296 kts | 359° |
| 2026-05-07 16:45 | 69.89333 | 18.98402 | 13908 ft | 292 kts | 358° |
| 2026-05-07 16:46 | 69.91377 | 18.98590 | 14300 ft | 296 kts | 358° |
| 2026-05-07 16:46 | 69.93423 | 18.98783 | 14683 ft | 298 kts | 358° |
| 2026-05-07 16:46 | 69.95512 | 18.98990 | 15166 ft | 296 kts | 359° |
| 2026-05-07 16:46 | 69.97566 | 18.99187 | 15691 ft | 302 kts | 359° |
| 2026-05-07 16:47 | 69.99699 | 18.99391 | 16242 ft | 303 kts | 359° |
| 2026-05-07 16:47 | 70.01813 | 18.99597 | 16795 ft | 305 kts | 359° |
| 2026-05-07 16:47 | 70.03916 | 18.99801 | 17343 ft | 309 kts | 359° |
| 2026-05-07 16:47 | 70.06099 | 19.00013 | 17933 ft | 310 kts | 359° |
| 2026-05-07 16:48 | 70.08236 | 19.00043 | 18468 ft | 313 kts | 350° |
| 2026-05-07 16:48 | 70.10341 | 18.98390 | 19000 ft | 315 kts | 339° |
| 2026-05-07 16:48 | 70.12424 | 18.96361 | 19518 ft | 316 kts | 340° |
| 2026-05-07 16:48 | 70.14525 | 18.94374 | 20057 ft | 318 kts | 340° |
| 2026-05-07 16:49 | 70.16647 | 18.92371 | 20588 ft | 322 kts | 340° |
| 2026-05-07 16:49 | 70.18833 | 18.90280 | 21151 ft | 342 kts | 340° |
| 2026-05-07 16:49 | 70.21129 | 18.88087 | 21740 ft | 348 kts | 340° |
| 2026-05-07 16:49 | 70.23448 | 18.85879 | 22304 ft | 353 kts | 340° |
| 2026-05-07 16:50 | 70.25815 | 18.83608 | 22882 ft | 361 kts | 340° |
| 2026-05-07 16:50 | 70.28213 | 18.81305 | 23470 ft | 363 kts | 341° |
| 2026-05-07 16:50 | 70.30612 | 18.78996 | 23986 ft | 360 kts | 341° |
| 2026-05-07 16:50 | 70.32896 | 18.76795 | 24447 ft | 335 kts | 341° |
| 2026-05-07 16:51 | 70.35154 | 18.74605 | 24864 ft | 353 kts | 341° |
| 2026-05-07 16:51 | 70.37506 | 18.72317 | 25251 ft | 356 kts | 341° |
| 2026-05-07 16:51 | 70.39855 | 18.70041 | 25633 ft | 355 kts | 340° |
| 2026-05-07 16:51 | 70.42213 | 18.67742 | 26034 ft | 360 kts | 341° |
| 2026-05-07 16:52 | 70.44606 | 18.65401 | 26436 ft | 364 kts | 341° |
| 2026-05-07 16:52 | 70.47021 | 18.63037 | 26826 ft | 366 kts | 341° |
| 2026-05-07 16:52 | 70.49454 | 18.60648 | 27087 ft | 370 kts | 341° |
| 2026-05-07 16:52 | 70.51900 | 18.58240 | 27372 ft | 368 kts | 340° |
| 2026-05-07 16:53 | 70.54323 | 18.55851 | 27641 ft | 367 kts | 340° |
| 2026-05-07 16:53 | 70.56756 | 18.53442 | 27903 ft | 369 kts | 340° |
| 2026-05-07 16:53 | 70.59224 | 18.50991 | 28026 ft | 377 kts | 340° |
| 2026-05-07 16:54 | 70.64187 | 18.46051 | 28061 ft | 374 kts | 341° |
| 2026-05-07 16:54 | 70.69065 | 18.41169 | 28070 ft | 371 kts | 340° |
| 2026-05-07 16:55 | 70.73970 | 18.36231 | 28067 ft | 372 kts | 340° |
| 2026-05-07 16:55 | 70.78926 | 18.31218 | 28080 ft | 381 kts | 340° |
| 2026-05-07 16:56 | 70.83908 | 18.26156 | 28084 ft | 374 kts | 340° |
| 2026-05-07 16:56 | 70.91348 | 18.18536 | 28087 ft | 378 kts | 340° |
| 2026-05-07 16:57 | 70.96317 | 18.13421 | 28086 ft | 376 kts | 340° |
| 2026-05-07 16:57 | 71.01262 | 18.08297 | 28086 ft | 375 kts | 340° |
| 2026-05-07 16:58 | 71.06238 | 18.03113 | 28091 ft | 380 kts | 341° |
| 2026-05-07 16:58 | 71.11236 | 17.97884 | 28094 ft | 378 kts | 341° |
| 2026-05-07 16:59 | 71.16205 | 17.92653 | 28091 ft | 378 kts | 341° |
| 2026-05-07 16:59 | 71.21206 | 17.87361 | 28094 ft | 380 kts | 341° |
| 2026-05-07 17:00 | 71.26185 | 17.82064 | 28087 ft | 376 kts | 340° |
| 2026-05-07 17:00 | 71.31149 | 17.76752 | 28093 ft | 379 kts | 340° |
| 2026-05-07 17:01 | 71.36138 | 17.71387 | 28091 ft | 379 kts | 340° |
| 2026-05-07 17:01 | 71.41077 | 17.66046 | 28095 ft | 377 kts | 340° |
| 2026-05-07 17:02 | 71.46043 | 17.60643 | 28103 ft | 380 kts | 341° |
| 2026-05-07 17:02 | 71.51060 | 17.55161 | 28109 ft | 382 kts | 341° |
| 2026-05-07 17:03 | 71.56048 | 17.49675 | 28100 ft | 379 kts | 341° |
| 2026-05-07 17:03 | 71.61044 | 17.44152 | 28104 ft | 382 kts | 341° |
| 2026-05-07 17:04 | 71.66063 | 17.38572 | 28102 ft | 381 kts | 341° |
| 2026-05-07 17:04 | 71.71048 | 17.32999 | 28103 ft | 380 kts | 340° |
| 2026-05-07 17:05 | 71.76053 | 17.27373 | 28104 ft | 382 kts | 340° |
| 2026-05-07 17:05 | 71.81050 | 17.21722 | 28113 ft | 380 kts | 340° |
| 2026-05-07 17:06 | 71.86034 | 17.16055 | 28110 ft | 381 kts | 341° |
| 2026-05-07 17:06 | 71.91061 | 17.10309 | 28111 ft | 384 kts | 341° |
| 2026-05-07 17:07 | 71.96066 | 17.04552 | 28113 ft | 381 kts | 341° |
| 2026-05-07 17:07 | 72.01093 | 16.99499 | 28113 ft | 382 kts | 352° |
| 2026-05-07 17:08 | 72.06381 | 16.97645 | 28118 ft | 383 kts | 354° |
| 2026-05-07 17:08 | 72.11659 | 16.95618 | 28125 ft | 381 kts | 353° |
| 2026-05-07 17:09 | 72.16933 | 16.93631 | 28128 ft | 383 kts | 354° |
| 2026-05-07 17:09 | 72.22223 | 16.91614 | 28126 ft | 381 kts | 353° |
| 2026-05-07 17:10 | 72.27514 | 16.89587 | 28125 ft | 386 kts | 354° |
| 2026-05-07 17:10 | 72.32851 | 16.87531 | 28127 ft | 384 kts | 354° |
| 2026-05-07 17:11 | 72.38158 | 16.85474 | 28134 ft | 385 kts | 354° |
| 2026-05-07 17:11 | 72.43480 | 16.83398 | 28136 ft | 385 kts | 354° |
| 2026-05-07 17:12 | 72.48790 | 16.81315 | 28134 ft | 384 kts | 354° |
| 2026-05-07 17:12 | 72.54104 | 16.79219 | 28139 ft | 385 kts | 354° |
| 2026-05-07 17:13 | 72.59427 | 16.77107 | 28142 ft | 384 kts | 354° |
| 2026-05-07 17:13 | 72.64731 | 16.74988 | 28138 ft | 385 kts | 354° |
| 2026-05-07 17:14 | 72.70025 | 16.72865 | 28146 ft | 385 kts | 354° |
| 2026-05-07 17:14 | 72.75326 | 16.70718 | 28140 ft | 385 kts | 355° |
| 2026-05-07 17:15 | 72.80654 | 16.68558 | 28145 ft | 385 kts | 354° |
| 2026-05-07 17:15 | 72.85955 | 16.66384 | 28146 ft | 384 kts | 354° |
| 2026-05-07 17:16 | 72.90386 | 16.64568 | 28154 ft | 386 kts | 354° |
| 2026-05-07 17:16 | 72.95693 | 16.62367 | 28150 ft | 384 kts | 355° |
| 2026-05-07 17:17 | 73.01000 | 16.60164 | 28153 ft | 381 kts | 354° |
| 2026-05-07 17:17 | 73.06233 | 16.57970 | 28152 ft | 379 kts | 354° |
| 2026-05-07 17:18 | 73.11492 | 16.55759 | 28149 ft | 381 kts | 354° |
| 2026-05-07 17:18 | 73.16781 | 16.53516 | 28160 ft | 384 kts | 355° |
| 2026-05-07 17:19 | 73.22068 | 16.51262 | 28160 ft | 382 kts | 354° |
| 2026-05-07 17:19 | 73.27352 | 16.48995 | 28163 ft | 384 kts | 355° |
| 2026-05-07 17:20 | 73.32642 | 16.46712 | 28171 ft | 382 kts | 354° |
| 2026-05-07 17:20 | 73.37915 | 16.44422 | 28179 ft | 381 kts | 355° |
| 2026-05-07 17:21 | 73.43121 | 16.42146 | 28168 ft | 376 kts | 355° |
| 2026-05-07 17:21 | 73.48351 | 16.39849 | 28184 ft | 379 kts | 354° |
| 2026-05-07 17:22 | 73.53556 | 16.37543 | 28182 ft | 377 kts | 355° |
| 2026-05-07 17:22 | 73.58787 | 16.35216 | 28198 ft | 379 kts | 355° |
| 2026-05-07 17:23 | 73.63989 | 16.32884 | 28194 ft | 376 kts | 355° |
| 2026-05-07 17:23 | 73.69212 | 16.30533 | 28200 ft | 379 kts | 354° |
| 2026-05-07 17:24 | 73.74425 | 16.28164 | 28197 ft | 376 kts | 355° |
| 2026-05-07 17:24 | 73.79599 | 16.25806 | 28202 ft | 378 kts | 354° |
| 2026-05-07 17:25 | 73.84791 | 16.23417 | 28195 ft | 375 kts | 354° |
| 2026-05-07 17:25 | 73.89991 | 16.21017 | 28215 ft | 378 kts | 354° |
| 2026-05-07 17:26 | 73.95190 | 16.18595 | 28212 ft | 375 kts | 354° |
| 2026-05-07 17:26 | 74.00386 | 16.16165 | 28210 ft | 380 kts | 355° |
| 2026-05-07 17:27 | 74.05637 | 16.13689 | 28221 ft | 378 kts | 354° |
| 2026-05-07 17:27 | 74.10849 | 16.11219 | 28217 ft | 380 kts | 354° |
| 2026-05-07 17:28 | 74.16097 | 16.08711 | 28225 ft | 378 kts | 354° |
| 2026-05-07 17:28 | 74.21318 | 16.06208 | 28224 ft | 380 kts | 354° |
| 2026-05-07 17:29 | 74.26556 | 16.03669 | 28226 ft | 378 kts | 354° |
| 2026-05-07 17:29 | 74.31763 | 16.01141 | 28221 ft | 379 kts | 354° |
| 2026-05-07 17:30 | 74.36971 | 15.98584 | 28229 ft | 379 kts | 355° |
| 2026-05-07 17:30 | 74.42185 | 15.96017 | 28224 ft | 379 kts | 354° |
| 2026-05-07 17:31 | 74.47424 | 15.93413 | 28231 ft | 379 kts | 355° |
| 2026-05-07 17:31 | 74.52636 | 15.90810 | 28225 ft | 378 kts | 354° |
| 2026-05-07 17:32 | 74.57850 | 15.88187 | 28229 ft | 378 kts | 354° |
| 2026-05-07 17:32 | 74.63065 | 15.85546 | 28228 ft | 378 kts | 354° |
| 2026-05-07 17:33 | 74.68271 | 15.82893 | 28234 ft | 378 kts | 354° |
| 2026-05-07 17:33 | 74.73485 | 15.80216 | 28234 ft | 378 kts | 354° |
| 2026-05-07 17:34 | 74.78694 | 15.77525 | 28237 ft | 378 kts | 354° |
| 2026-05-07 17:34 | 74.83908 | 15.74813 | 28243 ft | 378 kts | 354° |
| 2026-05-07 17:35 | 74.89126 | 15.72080 | 28235 ft | 379 kts | 354° |
| 2026-05-07 17:35 | 74.94357 | 15.69322 | 28254 ft | 379 kts | 354° |
| 2026-05-07 17:36 | 74.99565 | 15.66558 | 28252 ft | 378 kts | 354° |
| 2026-05-07 17:36 | 75.04788 | 15.63765 | 28263 ft | 379 kts | 354° |
| 2026-05-07 17:37 | 75.10000 | 15.60958 | 28252 ft | 378 kts | 354° |
| 2026-05-07 17:37 | 75.15214 | 15.58134 | 28262 ft | 379 kts | 354° |
| 2026-05-07 17:38 | 75.20441 | 15.55282 | 28270 ft | 378 kts | 354° |
| 2026-05-07 17:38 | 75.25649 | 15.52419 | 28263 ft | 378 kts | 354° |
| 2026-05-07 17:39 | 75.30868 | 15.49530 | 28266 ft | 378 kts | 353° |
| 2026-05-07 17:39 | 75.36061 | 15.46636 | 28259 ft | 377 kts | 353° |
| 2026-05-07 17:40 | 75.41233 | 15.43734 | 28258 ft | 379 kts | 353° |
| 2026-05-07 17:40 | 75.46429 | 15.40797 | 28264 ft | 376 kts | 353° |
| 2026-05-07 17:41 | 75.51633 | 15.37835 | 28266 ft | 379 kts | 353° |
| 2026-05-07 17:41 | 75.56836 | 15.34852 | 28267 ft | 377 kts | 353° |
| 2026-05-07 17:42 | 75.62028 | 15.31855 | 28271 ft | 378 kts | 353° |
| 2026-05-07 17:42 | 75.67237 | 15.28826 | 28275 ft | 377 kts | 353° |
| 2026-05-07 17:43 | 75.72426 | 15.25787 | 28276 ft | 377 kts | 353° |
| 2026-05-07 17:43 | 75.77627 | 15.22719 | 28283 ft | 378 kts | 353° |
| 2026-05-07 17:44 | 75.82811 | 15.19638 | 28279 ft | 377 kts | 353° |
| 2026-05-07 17:44 | 75.88019 | 15.16521 | 28284 ft | 378 kts | 353° |
| 2026-05-07 17:45 | 75.93209 | 15.13391 | 28281 ft | 377 kts | 353° |
| 2026-05-07 17:45 | 75.98409 | 15.10235 | 28288 ft | 378 kts | 353° |
| 2026-05-07 17:46 | 76.03600 | 15.07057 | 28288 ft | 376 kts | 353° |
| 2026-05-07 17:46 | 76.08802 | 15.03852 | 28294 ft | 379 kts | 353° |
| 2026-05-07 17:47 | 76.13965 | 15.00647 | 28296 ft | 377 kts | 353° |
| 2026-05-07 17:47 | 76.19158 | 14.97398 | 28297 ft | 378 kts | 353° |
| 2026-05-07 17:48 | 76.24364 | 14.94115 | 28303 ft | 377 kts | 353° |
| 2026-05-07 17:48 | 76.29548 | 14.90826 | 28304 ft | 377 kts | 353° |
| 2026-05-07 17:49 | 76.34753 | 14.87496 | 28307 ft | 378 kts | 353° |
| 2026-05-07 17:49 | 76.39943 | 14.84083 | 28302 ft | 377 kts | 353° |
| 2026-05-07 17:50 | 76.45130 | 14.80670 | 28305 ft | 378 kts | 353° |
| 2026-05-07 17:50 | 76.50332 | 14.77216 | 28299 ft | 378 kts | 353° |
| 2026-05-07 17:51 | 76.55517 | 14.73746 | 28298 ft | 377 kts | 353° |
| 2026-05-07 17:51 | 76.60728 | 14.70232 | 28067 ft | 380 kts | 352° |
| 2026-05-07 17:52 | 76.63289 | 14.68491 | 27828 ft | 365 kts | 352° |
| 2026-05-07 17:52 | 76.65775 | 14.66795 | 27583 ft | 360 kts | 353° |
| 2026-05-07 17:52 | 76.68264 | 14.65106 | 27375 ft | 366 kts | 353° |
| 2026-05-07 17:52 | 76.70779 | 14.63381 | 27158 ft | 365 kts | 352° |
| 2026-05-07 17:53 | 76.73280 | 14.61653 | 26950 ft | 362 kts | 352° |
| 2026-05-07 17:53 | 76.75755 | 14.59945 | 26738 ft | 360 kts | 352° |
| 2026-05-07 17:53 | 76.78223 | 14.58232 | 26521 ft | 360 kts | 352° |
| 2026-05-07 17:53 | 76.80694 | 14.56514 | 26311 ft | 359 kts | 352° |
| 2026-05-07 17:54 | 76.83163 | 14.54789 | 26097 ft | 357 kts | 353° |
| 2026-05-07 17:54 | 76.85606 | 14.53072 | 25900 ft | 354 kts | 353° |
| 2026-05-07 17:54 | 76.88043 | 14.51360 | 25582 ft | 355 kts | 353° |
| 2026-05-07 17:54 | 76.90477 | 14.49638 | 25299 ft | 352 kts | 353° |
| 2026-05-07 17:55 | 76.92879 | 14.47933 | 25039 ft | 348 kts | 353° |
| 2026-05-07 17:55 | 76.95272 | 14.46235 | 24793 ft | 349 kts | 353° |
| 2026-05-07 17:55 | 76.97669 | 14.44522 | 24493 ft | 350 kts | 353° |
| 2026-05-07 17:55 | 77.00062 | 14.42804 | 24172 ft | 346 kts | 353° |
| 2026-05-07 17:56 | 77.02427 | 14.41101 | 23841 ft | 342 kts | 353° |
| 2026-05-07 17:56 | 77.04775 | 14.39405 | 23456 ft | 341 kts | 353° |
| 2026-05-07 17:56 | 77.07116 | 14.37714 | 23087 ft | 340 kts | 353° |
| 2026-05-07 17:56 | 77.07485 | 14.37446 | 23025 ft | 340 kts | 353° |
| 2026-05-07 17:57 | 77.08525 | 14.36689 | 22861 ft | 339 kts | 353° |
| 2026-05-07 17:57 | 77.11589 | 14.34450 | 22375 ft | 335 kts | 353° |
| 2026-05-07 17:57 | 77.13882 | 14.32773 | 22004 ft | 333 kts | 353° |
| 2026-05-07 17:58 | 77.16165 | 14.31093 | 21643 ft | 332 kts | 352° |
| 2026-05-07 17:58 | 77.18441 | 14.29417 | 21300 ft | 331 kts | 352° |
| 2026-05-07 17:58 | 77.20715 | 14.27741 | 20895 ft | 330 kts | 352° |
| 2026-05-07 17:58 | 77.22968 | 14.26066 | 20485 ft | 326 kts | 353° |
| 2026-05-07 17:59 | 77.25197 | 14.24411 | 20095 ft | 324 kts | 353° |
| 2026-05-07 17:59 | 77.26887 | 14.23151 | 19800 ft | 323 kts | 353° |
| 2026-05-07 17:59 | 77.28114 | 14.22233 | 19592 ft | 323 kts | 353° |
| 2026-05-07 17:59 | 77.30329 | 14.20574 | 19215 ft | 321 kts | 353° |
| 2026-05-07 18:00 | 77.32528 | 14.18917 | 18830 ft | 319 kts | 353° |
| 2026-05-07 18:00 | 77.34708 | 14.17271 | 18437 ft | 316 kts | 353° |
| 2026-05-07 18:00 | 77.36873 | 14.15634 | 18004 ft | 315 kts | 353° |
| 2026-05-07 18:00 | 77.39027 | 14.13996 | 17583 ft | 314 kts | 352° |
| 2026-05-07 18:01 | 77.41177 | 14.12356 | 17156 ft | 313 kts | 352° |
| 2026-05-07 18:01 | 77.43320 | 14.10716 | 16753 ft | 312 kts | 352° |
| 2026-05-07 18:01 | 77.45459 | 14.09076 | 16352 ft | 311 kts | 352° |
| 2026-05-07 18:01 | 77.47589 | 14.07431 | 15959 ft | 311 kts | 352° |
| 2026-05-07 18:02 | 77.51846 | 14.04135 | 15171 ft | 309 kts | 352° |
| 2026-05-07 18:02 | 77.53935 | 14.02512 | 14792 ft | 308 kts | 352° |
| 2026-05-07 18:02 | 77.56049 | 14.00860 | 14411 ft | 308 kts | 352° |
| 2026-05-07 18:03 | 77.58160 | 13.99202 | 14021 ft | 307 kts | 352° |
| 2026-05-07 18:03 | 77.60266 | 13.97549 | 13593 ft | 307 kts | 352° |
| 2026-05-07 18:03 | 77.62372 | 13.95888 | 13184 ft | 306 kts | 352° |
| 2026-05-07 18:03 | 77.64470 | 13.94226 | 12766 ft | 306 kts | 352° |
| 2026-05-07 18:04 | 77.66563 | 13.92565 | 12361 ft | 302 kts | 352° |
| 2026-05-07 18:04 | 77.68594 | 13.90939 | 11942 ft | 291 kts | 352° |
| 2026-05-07 18:04 | 77.70562 | 13.89369 | 11521 ft | 284 kts | 352° |
| 2026-05-07 18:04 | 77.72496 | 13.87819 | 11186 ft | 280 kts | 352° |
| 2026-05-07 18:05 | 77.74418 | 13.86273 | 10852 ft | 281 kts | 352° |
| 2026-05-07 18:05 | 77.76346 | 13.84721 | 10521 ft | 281 kts | 351° |
| 2026-05-07 18:05 | 77.78262 | 13.83166 | 10184 ft | 279 kts | 351° |
| 2026-05-07 18:05 | 77.80169 | 13.81618 | 9827 ft | 277 kts | 351° |
| 2026-05-07 18:06 | 77.81449 | 13.80575 | 9567 ft | 276 kts | 351° |
| 2026-05-07 18:06 | 77.83333 | 13.79034 | 9214 ft | 274 kts | 351° |
| 2026-05-07 18:06 | 77.85184 | 13.77522 | 8856 ft | 272 kts | 351° |
| 2026-05-07 18:06 | 77.87038 | 13.75998 | 8497 ft | 270 kts | 351° |
| 2026-05-07 18:07 | 77.88886 | 13.74472 | 8138 ft | 268 kts | 351° |
| 2026-05-07 18:07 | 77.90714 | 13.72967 | 7848 ft | 265 kts | 351° |
| 2026-05-07 18:07 | 77.92523 | 13.71466 | 7550 ft | 264 kts | 351° |
| 2026-05-07 18:07 | 77.94315 | 13.69971 | 7258 ft | 256 kts | 351° |
| 2026-05-07 18:08 | 77.96030 | 13.68539 | 6947 ft | 245 kts | 351° |
| 2026-05-07 18:08 | 77.97678 | 13.67166 | 6640 ft | 236 kts | 351° |
| 2026-05-07 18:08 | 77.99270 | 13.65833 | 6350 ft | 229 kts | 350° |
| 2026-05-07 18:08 | 78.00822 | 13.64524 | 6098 ft | 225 kts | 350° |
| 2026-05-07 18:09 | 78.02367 | 13.63216 | 5873 ft | 226 kts | 350° |
| 2026-05-07 18:09 | 78.03916 | 13.61915 | 5675 ft | 226 kts | 351° |
| 2026-05-07 18:09 | 78.05468 | 13.60709 | 5446 ft | 225 kts | 356° |
| 2026-05-07 18:09 | 78.06970 | 13.62219 | 5219 ft | 222 kts | 27° |
| 2026-05-07 18:10 | 78.08312 | 13.65833 | 5022 ft | 218 kts | 29° |
| 2026-05-07 18:10 | 78.09605 | 13.69293 | 4834 ft | 206 kts | 28° |
| 2026-05-07 18:10 | 78.10824 | 13.72574 | 4671 ft | 199 kts | 28° |
| 2026-05-07 18:10 | 78.12039 | 13.75869 | 4484 ft | 201 kts | 28° |
| 2026-05-07 18:11 | 78.13259 | 13.79167 | 4270 ft | 198 kts | 28° |
| 2026-05-07 18:11 | 78.14438 | 13.82362 | 4127 ft | 195 kts | 28° |
| 2026-05-07 18:11 | 78.15624 | 13.85575 | 4064 ft | 195 kts | 28° |
| 2026-05-07 18:11 | 78.16815 | 13.88821 | 4039 ft | 197 kts | 28° |
| 2026-05-07 18:12 | 78.17936 | 13.91873 | 4031 ft | 197 kts | 29° |
| 2026-05-07 18:12 | 78.19089 | 13.95025 | 4015 ft | 196 kts | 29° |
| 2026-05-07 18:12 | 78.20278 | 13.98279 | 4014 ft | 197 kts | 29° |
| 2026-05-07 18:13 | 78.21477 | 14.01573 | 4016 ft | 198 kts | 29° |
| 2026-05-07 18:13 | 78.22672 | 14.04859 | 4016 ft | 197 kts | 29° |
| 2026-05-07 18:13 | 78.23864 | 14.08157 | 4014 ft | 197 kts | 30° |
| 2026-05-07 18:13 | 78.24995 | 14.11959 | 4010 ft | 198 kts | 34° |
| 2026-05-07 18:14 | 78.26139 | 14.15710 | 4009 ft | 197 kts | 33° |
| 2026-05-07 18:14 | 78.27217 | 14.19248 | 4013 ft | 174 kts | 33° |
| 2026-05-07 18:14 | 78.28222 | 14.22591 | 4021 ft | 178 kts | 33° |
| 2026-05-07 18:14 | 78.29244 | 14.26001 | 4011 ft | 175 kts | 33° |
| 2026-05-07 18:15 | 78.30108 | 14.30165 | 3992 ft | 178 kts | 57° |
| 2026-05-07 18:15 | 78.30463 | 14.35975 | 4002 ft | 180 kts | 84° |
| 2026-05-07 18:15 | 78.30267 | 14.42075 | 3949 ft | 184 kts | 103° |
| 2026-05-07 18:15 | 78.29934 | 14.48182 | 3744 ft | 183 kts | 102° |
| 2026-05-07 18:16 | 78.29626 | 14.54199 | 3491 ft | 180 kts | 101° |
| 2026-05-07 18:16 | 78.29352 | 14.60136 | 3216 ft | 173 kts | 100° |
| 2026-05-07 18:16 | 78.29100 | 14.65686 | 2920 ft | 164 kts | 101° |
| 2026-05-07 18:16 | 78.28842 | 14.71134 | 2630 ft | 157 kts | 102° |
| 2026-05-07 18:17 | 78.28579 | 14.76174 | 2388 ft | 155 kts | 104° |
| 2026-05-07 18:17 | 78.28287 | 14.81350 | 2177 ft | 157 kts | 105° |
| 2026-05-07 18:17 | 78.27983 | 14.86460 | 1957 ft | 155 kts | 106° |
| 2026-05-07 18:17 | 78.27677 | 14.91557 | 1726 ft | 155 kts | 106° |
| 2026-05-07 18:18 | 78.27375 | 14.96635 | 1479 ft | 154 kts | 106° |
| 2026-05-07 18:18 | 78.27090 | 15.01693 | 1239 ft | 153 kts | 105° |
| 2026-05-07 18:18 | 78.26816 | 15.06766 | 1020 ft | 153 kts | 104° |
| 2026-05-07 18:18 | 78.26548 | 15.11799 | 869 ft | 148 kts | 104° |
| 2026-05-07 18:19 | 78.26301 | 15.16345 | 663 ft | 132 kts | 104° |
| 2026-05-07 18:19 | 78.26057 | 15.20709 | 431 ft | 132 kts | 104° |
| 2026-05-07 18:19 | 78.25818 | 15.25002 | 213 ft | 129 kts | 104° |
| 2026-05-07 18:19 | 78.25579 | 15.29212 | 32 ft | 125 kts | 105° |
| 2026-05-07 18:20 | 78.25353 | 15.33192 | 158 ft | 121 kts | 104° |
| 2026-05-07 18:20 | 78.25112 | 15.37390 | 304 ft | 131 kts | 105° |
| 2026-05-07 18:20 | 78.24863 | 15.41807 | 126 ft | 140 kts | 104° |
| 2026-05-07 18:20 | 78.24662 | 15.46159 | 92 ft | 117 kts | 106° |
| 2026-05-07 18:21 | 78.24463 | 15.49217 | 87 ft | 66 kts | 105° |
| 2026-05-07 18:21 | 78.24379 | 15.50766 | 87 ft | 45 kts | 105° |
| 2026-05-07 18:21 | 78.24345 | 15.51547 | 89 ft | 9 kts | 59° |
| 2026-05-07 18:21 | 78.24387 | 15.51516 | 85 ft | 8 kts | 297° |
| 2026-05-07 18:22 | 78.24372 | 15.50997 | 87 ft | 24 kts | 272° |
| 2026-05-07 18:22 | 78.24398 | 15.50416 | 87 ft | 20 kts | 285° |
| 2026-05-07 18:22 | 78.24408 | 15.50247 | 85 ft | 0 kts | 285° |
| 2026-05-07 18:23 | 78.24408 | 15.50244 | 85 ft | 1 kts | 285° |
| 2026-05-07 18:23 | 78.24425 | 15.49925 | 89 ft | 20 kts | 284° |
| 2026-05-07 18:23 | 78.24466 | 15.49475 | 90 ft | 10 kts | 329° |
| 2026-05-07 18:24 | 78.24523 | 15.49516 | 87 ft | 8 kts | 17° |
| 2026-05-07 18:24 | 78.24547 | 15.49552 | 85 ft | 0 kts | 17° |
| 2026-05-07 18:25 | 78.24550 | 15.49557 | 89 ft | 3 kts | 17° |
| 2026-05-07 18:25 | 78.24594 | 15.49652 | 88 ft | 7 kts | 50° |
| 2026-05-07 18:25 | 78.24597 | 15.49780 | 86 ft | 1 kts | 99° |
| 2026-05-07 18:25 | 78.24597 | 15.49796 | 85 ft | 0 kts | 99° |
| 2026-05-07 18:26 | 78.24596 | 15.49805 | 87 ft | 0 kts | 102° |
| 2026-05-07 18:29 | 78.24596 | 15.49806 | 85 ft | 0 kts | 102° |